sensor_id;sensor_type;location;lat;lon;timestamp;temperature;humidity
15700;DHT22;7950;42.744;23.174;2023-08-12T00:00:44;15.00;99.90
15700;DHT22;7950;42.744;23.174;2023-08-12T00:03:12;15.00;99.90
15700;DHT22;7950;42.744;23.174;2023-08-12T00:05:41;15.00;99.90
15700;DHT22;7950;42.744;23.174;2023-08-12T00:08:12;15.00;99.90
15700;DHT22;7950;42.744;23.174;2023-08-12T00:10:40;15.00;99.90
15700;DHT22;7950;42.744;23.174;2023-08-12T00:13:08;15.00;99.90
15700;DHT22;7950;42.744;23.174;2023-08-12T00:15:37;15.00;99.90
15700;DHT22;7950;42.744;23.174;2023-08-12T00:18:07;14.90;99.90
15700;DHT22;7950;42.744;23.174;2023-08-12T00:20:36;14.90;99.90
15700;DHT22;7950;42.744;23.174;2023-08-12T00:23:05;14.90;99.90
15700;DHT22;7950;42.744;23.174;2023-08-12T00:25:35;14.90;99.90
15700;DHT22;7950;42.744;23.174;2023-08-12T00:28:04;14.90;99.90
15700;DHT22;7950;42.744;23.174;2023-08-12T00:30:32;14.90;99.90
15700;DHT22;7950;42.744;23.174;2023-08-12T00:33:01;14.90;99.90
15700;DHT22;7950;42.744;23.174;2023-08-12T00:35:30;14.90;99.90
15700;DHT22;7950;42.744;23.174;2023-08-12T00:37:58;14.90;99.90
15700;DHT22;7950;42.744;23.174;2023-08-12T00:40:27;14.90;99.90
15700;DHT22;7950;42.744;23.174;2023-08-12T00:42:57;14.90;99.90
15700;DHT22;7950;42.744;23.174;2023-08-12T00:45:25;14.80;99.90
15700;DHT22;7950;42.744;23.174;2023-08-12T00:47:54;14.80;99.90
15700;DHT22;7950;42.744;23.174;2023-08-12T00:50:23;14.90;99.90
15700;DHT22;7950;42.744;23.174;2023-08-12T00:52:52;14.90;99.90
15700;DHT22;7950;42.744;23.174;2023-08-12T00:55:20;14.90;99.90
15700;DHT22;7950;42.744;23.174;2023-08-12T00:57:49;14.90;99.90
15700;DHT22;7950;42.744;23.174;2023-08-12T01:00:21;14.90;99.90
15700;DHT22;7950;42.744;23.174;2023-08-12T01:02:51;14.90;99.90
15700;DHT22;7950;42.744;23.174;2023-08-12T01:05:22;14.90;99.90
15700;DHT22;7950;42.744;23.174;2023-08-12T01:07:50;14.90;99.90
15700;DHT22;7950;42.744;23.174;2023-08-12T01:10:21;14.90;99.90
15700;DHT22;7950;42.744;23.174;2023-08-12T01:12:59;14.80;99.90
15700;DHT22;7950;42.744;23.174;2023-08-12T01:15:36;14.70;99.90
15700;DHT22;7950;42.744;23.174;2023-08-12T01:18:07;14.70;99.90
15700;DHT22;7950;42.744;23.174;2023-08-12T01:20:36;14.60;99.90
15700;DHT22;7950;42.744;23.174;2023-08-12T01:23:13;14.60;99.90
15700;DHT22;7950;42.744;23.174;2023-08-12T01:25:42;14.60;99.90
15700;DHT22;7950;42.744;23.174;2023-08-12T01:28:11;14.50;99.90
15700;DHT22;7950;42.744;23.174;2023-08-12T01:30:46;14.50;99.90
15700;DHT22;7950;42.744;23.174;2023-08-12T01:33:29;14.50;99.90
15700;DHT22;7950;42.744;23.174;2023-08-12T01:36:09;14.50;99.90
15700;DHT22;7950;42.744;23.174;2023-08-12T01:38:44;14.50;99.90
15700;DHT22;7950;42.744;23.174;2023-08-12T01:41:15;14.40;99.90
15700;DHT22;7950;42.744;23.174;2023-08-12T01:43:46;14.40;99.90
15700;DHT22;7950;42.744;23.174;2023-08-12T01:46:15;14.30;99.90
15700;DHT22;7950;42.744;23.174;2023-08-12T01:48:44;14.30;99.90
15700;DHT22;7950;42.744;23.174;2023-08-12T01:51:12;14.30;99.90
15700;DHT22;7950;42.744;23.174;2023-08-12T01:53:41;14.40;99.90
15700;DHT22;7950;42.744;23.174;2023-08-12T01:56:10;14.30;99.90
15700;DHT22;7950;42.744;23.174;2023-08-12T01:58:39;14.20;99.90
15700;DHT22;7950;42.744;23.174;2023-08-12T02:01:07;14.20;99.90
15700;DHT22;7950;42.744;23.174;2023-08-12T02:03:36;14.10;99.90
15700;DHT22;7950;42.744;23.174;2023-08-12T02:06:06;14.10;99.90
15700;DHT22;7950;42.744;23.174;2023-08-12T02:08:34;14.10;99.90
15700;DHT22;7950;42.744;23.174;2023-08-12T02:11:03;14.10;99.90
15700;DHT22;7950;42.744;23.174;2023-08-12T02:13:33;14.10;99.90
15700;DHT22;7950;42.744;23.174;2023-08-12T02:16:01;14.10;99.90
15700;DHT22;7950;42.744;23.174;2023-08-12T02:18:30;14.00;99.90
15700;DHT22;7950;42.744;23.174;2023-08-12T02:20:57;14.00;99.90
15700;DHT22;7950;42.744;23.174;2023-08-12T02:23:26;14.00;99.90
15700;DHT22;7950;42.744;23.174;2023-08-12T02:25:54;13.90;99.90
15700;DHT22;7950;42.744;23.174;2023-08-12T02:28:23;14.00;99.90
15700;DHT22;7950;42.744;23.174;2023-08-12T02:30:53;14.00;99.90
15700;DHT22;7950;42.744;23.174;2023-08-12T02:33:21;13.90;99.90
15700;DHT22;7950;42.744;23.174;2023-08-12T02:35:53;13.90;99.90
15700;DHT22;7950;42.744;23.174;2023-08-12T02:38:22;13.80;99.90
15700;DHT22;7950;42.744;23.174;2023-08-12T02:40:51;13.80;99.90
15700;DHT22;7950;42.744;23.174;2023-08-12T02:43:19;13.70;99.90
15700;DHT22;7950;42.744;23.174;2023-08-12T02:45:48;13.70;99.90
15700;DHT22;7950;42.744;23.174;2023-08-12T02:48:18;13.60;99.90
15700;DHT22;7950;42.744;23.174;2023-08-12T02:50:46;13.60;99.90
15700;DHT22;7950;42.744;23.174;2023-08-12T02:53:15;13.50;99.90
15700;DHT22;7950;42.744;23.174;2023-08-12T02:55:44;13.50;99.90
15700;DHT22;7950;42.744;23.174;2023-08-12T02:58:13;13.50;99.90
15700;DHT22;7950;42.744;23.174;2023-08-12T03:00:42;13.40;99.90
15700;DHT22;7950;42.744;23.174;2023-08-12T03:03:11;13.30;99.90
15700;DHT22;7950;42.744;23.174;2023-08-12T03:05:41;13.30;99.90
15700;DHT22;7950;42.744;23.174;2023-08-12T03:08:14;13.40;99.90
15700;DHT22;7950;42.744;23.174;2023-08-12T03:10:44;13.30;99.90
15700;DHT22;7950;42.744;23.174;2023-08-12T03:13:13;13.30;99.90
15700;DHT22;7950;42.744;23.174;2023-08-12T03:15:41;13.30;99.90
15700;DHT22;7950;42.744;23.174;2023-08-12T03:18:10;13.30;99.90
15700;DHT22;7950;42.744;23.174;2023-08-12T03:20:38;13.30;99.90
15700;DHT22;7950;42.744;23.174;2023-08-12T03:23:08;13.30;99.90
15700;DHT22;7950;42.744;23.174;2023-08-12T03:25:37;13.30;99.90
15700;DHT22;7950;42.744;23.174;2023-08-12T03:28:05;13.30;99.90
15700;DHT22;7950;42.744;23.174;2023-08-12T03:30:34;13.30;99.90
15700;DHT22;7950;42.744;23.174;2023-08-12T03:33:03;13.30;99.90
15700;DHT22;7950;42.744;23.174;2023-08-12T03:35:32;13.30;99.90
15700;DHT22;7950;42.744;23.174;2023-08-12T03:38:02;13.30;99.90
15700;DHT22;7950;42.744;23.174;2023-08-12T03:40:30;13.40;99.90
15700;DHT22;7950;42.744;23.174;2023-08-12T03:42:59;13.40;99.90
15700;DHT22;7950;42.744;23.174;2023-08-12T03:45:27;13.50;99.90
15700;DHT22;7950;42.744;23.174;2023-08-12T03:47:56;13.50;99.90
15700;DHT22;7950;42.744;23.174;2023-08-12T03:50:25;13.60;99.90
15700;DHT22;7950;42.744;23.174;2023-08-12T03:52:53;13.60;99.90
15700;DHT22;7950;42.744;23.174;2023-08-12T03:55:23;13.70;99.90
15700;DHT22;7950;42.744;23.174;2023-08-12T03:57:52;13.70;99.90
15700;DHT22;7950;42.744;23.174;2023-08-12T04:00:20;13.70;99.90
15700;DHT22;7950;42.744;23.174;2023-08-12T04:02:49;13.80;99.90
15700;DHT22;7950;42.744;23.174;2023-08-12T04:05:17;13.80;99.90
15700;DHT22;7950;42.744;23.174;2023-08-12T04:07:46;13.90;99.90
15700;DHT22;7950;42.744;23.174;2023-08-12T04:10:14;14.00;99.90
15700;DHT22;7950;42.744;23.174;2023-08-12T04:12:45;14.20;99.90
15700;DHT22;7950;42.744;23.174;2023-08-12T04:15:14;14.20;99.90
15700;DHT22;7950;42.744;23.174;2023-08-12T04:17:43;14.30;99.90
15700;DHT22;7950;42.744;23.174;2023-08-12T04:20:11;14.40;99.90
15700;DHT22;7950;42.744;23.174;2023-08-12T04:22:40;14.40;99.90
15700;DHT22;7950;42.744;23.174;2023-08-12T04:25:08;14.50;99.90
15700;DHT22;7950;42.744;23.174;2023-08-12T04:27:37;14.60;99.90
15700;DHT22;7950;42.744;23.174;2023-08-12T04:30:08;14.70;99.90
15700;DHT22;7950;42.744;23.174;2023-08-12T04:32:37;14.80;99.90
15700;DHT22;7950;42.744;23.174;2023-08-12T04:35:06;14.90;99.90
15700;DHT22;7950;42.744;23.174;2023-08-12T04:37:36;15.10;99.90
15700;DHT22;7950;42.744;23.174;2023-08-12T04:40:05;15.20;99.90
15700;DHT22;7950;42.744;23.174;2023-08-12T04:42:35;15.30;99.90
15700;DHT22;7950;42.744;23.174;2023-08-12T04:45:04;15.50;99.90
15700;DHT22;7950;42.744;23.174;2023-08-12T04:47:35;15.60;99.90
15700;DHT22;7950;42.744;23.174;2023-08-12T04:50:04;15.80;99.90
15700;DHT22;7950;42.744;23.174;2023-08-12T04:52:33;16.00;99.90
15700;DHT22;7950;42.744;23.174;2023-08-12T04:55:02;16.00;99.90
15700;DHT22;7950;42.744;23.174;2023-08-12T04:57:31;16.10;99.90
15700;DHT22;7950;42.744;23.174;2023-08-12T05:00:00;16.00;99.90
15700;DHT22;7950;42.744;23.174;2023-08-12T05:02:29;16.00;99.90
15700;DHT22;7950;42.744;23.174;2023-08-12T05:04:58;16.20;99.90
15700;DHT22;7950;42.744;23.174;2023-08-12T05:07:27;16.30;99.90
15700;DHT22;7950;42.744;23.174;2023-08-12T05:09:57;16.50;99.90
15700;DHT22;7950;42.744;23.174;2023-08-12T05:12:26;16.60;99.90
15700;DHT22;7950;42.744;23.174;2023-08-12T05:14:55;16.70;99.90
15700;DHT22;7950;42.744;23.174;2023-08-12T05:17:23;16.70;99.90
15700;DHT22;7950;42.744;23.174;2023-08-12T05:19:53;16.80;99.90
15700;DHT22;7950;42.744;23.174;2023-08-12T05:22:22;16.90;99.90
15700;DHT22;7950;42.744;23.174;2023-08-12T05:24:50;17.00;99.90
15700;DHT22;7950;42.744;23.174;2023-08-12T05:27:19;17.10;99.90
15700;DHT22;7950;42.744;23.174;2023-08-12T05:29:47;17.10;99.90
15700;DHT22;7950;42.744;23.174;2023-08-12T05:32:16;17.30;99.90
15700;DHT22;7950;42.744;23.174;2023-08-12T05:34:45;17.40;99.90
15700;DHT22;7950;42.744;23.174;2023-08-12T05:37:15;17.50;99.90
15700;DHT22;7950;42.744;23.174;2023-08-12T05:39:44;17.70;99.90
15700;DHT22;7950;42.744;23.174;2023-08-12T05:42:12;17.90;99.90
15700;DHT22;7950;42.744;23.174;2023-08-12T05:44:41;18.00;99.90
15700;DHT22;7950;42.744;23.174;2023-08-12T05:47:10;18.00;99.90
15700;DHT22;7950;42.744;23.174;2023-08-12T05:49:38;18.20;99.90
15700;DHT22;7950;42.744;23.174;2023-08-12T05:52:07;18.30;99.90
15700;DHT22;7950;42.744;23.174;2023-08-12T05:54:37;18.40;99.90
15700;DHT22;7950;42.744;23.174;2023-08-12T05:57:06;18.60;99.90
15700;DHT22;7950;42.744;23.174;2023-08-12T05:59:34;18.80;99.90
15700;DHT22;7950;42.744;23.174;2023-08-12T06:02:03;19.00;99.90
15700;DHT22;7950;42.744;23.174;2023-08-12T06:04:31;19.10;99.90
15700;DHT22;7950;42.744;23.174;2023-08-12T06:07:00;19.30;99.90
15700;DHT22;7950;42.744;23.174;2023-08-12T06:09:28;19.40;99.90
15700;DHT22;7950;42.744;23.174;2023-08-12T06:11:58;19.40;99.90
15700;DHT22;7950;42.744;23.174;2023-08-12T06:14:27;19.60;99.90
15700;DHT22;7950;42.744;23.174;2023-08-12T06:16:55;19.70;99.90
15700;DHT22;7950;42.744;23.174;2023-08-12T06:19:25;19.90;99.90
15700;DHT22;7950;42.744;23.174;2023-08-12T06:21:53;20.10;99.90
15700;DHT22;7950;42.744;23.174;2023-08-12T06:24:22;20.30;99.90
15700;DHT22;7950;42.744;23.174;2023-08-12T06:26:50;20.30;99.90
15700;DHT22;7950;42.744;23.174;2023-08-12T06:29:20;20.40;99.90
15700;DHT22;7950;42.744;23.174;2023-08-12T06:31:49;20.50;99.90
15700;DHT22;7950;42.744;23.174;2023-08-12T06:34:18;20.70;99.90
15700;DHT22;7950;42.744;23.174;2023-08-12T06:36:46;20.80;99.90
15700;DHT22;7950;42.744;23.174;2023-08-12T06:39:15;21.10;99.90
15700;DHT22;7950;42.744;23.174;2023-08-12T06:41:43;21.30;99.90
15700;DHT22;7950;42.744;23.174;2023-08-12T06:44:12;21.50;99.90
15700;DHT22;7950;42.744;23.174;2023-08-12T06:46:42;21.60;99.90
15700;DHT22;7950;42.744;23.174;2023-08-12T06:49:11;21.70;99.90
15700;DHT22;7950;42.744;23.174;2023-08-12T07:04:44;21.90;99.90
15700;DHT22;7950;42.744;23.174;2023-08-12T07:07:12;22.50;97.60
15700;DHT22;7950;42.744;23.174;2023-08-12T07:09:40;22.60;97.10
15700;DHT22;7950;42.744;23.174;2023-08-12T07:12:08;22.70;94.70
15700;DHT22;7950;42.744;23.174;2023-08-12T07:14:38;22.80;94.50
15700;DHT22;7950;42.744;23.174;2023-08-12T07:17:06;22.90;94.10
15700;DHT22;7950;42.744;23.174;2023-08-12T07:19:34;23.00;93.00
15700;DHT22;7950;42.744;23.174;2023-08-12T07:22:04;23.10;92.60
15700;DHT22;7950;42.744;23.174;2023-08-12T07:24:32;23.30;91.90
15700;DHT22;7950;42.744;23.174;2023-08-12T07:27:01;23.30;89.60
15700;DHT22;7950;42.744;23.174;2023-08-12T07:29:32;23.40;87.70
15700;DHT22;7950;42.744;23.174;2023-08-12T07:32:00;23.50;85.20
15700;DHT22;7950;42.744;23.174;2023-08-12T07:34:29;23.50;87.80
15700;DHT22;7950;42.744;23.174;2023-08-12T07:36:57;23.70;86.10
15700;DHT22;7950;42.744;23.174;2023-08-12T07:39:27;23.70;85.40
15700;DHT22;7950;42.744;23.174;2023-08-12T07:41:55;23.80;80.00
15700;DHT22;7950;42.744;23.174;2023-08-12T07:44:24;23.70;77.90
15700;DHT22;7950;42.744;23.174;2023-08-12T07:46:52;23.70;77.70
15700;DHT22;7950;42.744;23.174;2023-08-12T07:49:21;23.80;78.80
15700;DHT22;7950;42.744;23.174;2023-08-12T07:51:49;23.90;74.30
15700;DHT22;7950;42.744;23.174;2023-08-12T07:54:18;24.00;77.00
15700;DHT22;7950;42.744;23.174;2023-08-12T07:56:47;24.10;76.70
15700;DHT22;7950;42.744;23.174;2023-08-12T07:59:16;24.10;76.00
15700;DHT22;7950;42.744;23.174;2023-08-12T08:01:44;24.20;73.50
15700;DHT22;7950;42.744;23.174;2023-08-12T08:04:12;24.20;76.00
15700;DHT22;7950;42.744;23.174;2023-08-12T08:06:40;24.10;73.30
15700;DHT22;7950;42.744;23.174;2023-08-12T08:09:09;24.20;76.30
15700;DHT22;7950;42.744;23.174;2023-08-12T08:11:37;24.30;75.40
15700;DHT22;7950;42.744;23.174;2023-08-12T08:14:07;24.40;74.90
15700;DHT22;7950;42.744;23.174;2023-08-12T08:16:35;24.50;73.60
15700;DHT22;7950;42.744;23.174;2023-08-12T08:19:07;24.60;72.10
15700;DHT22;7950;42.744;23.174;2023-08-12T08:21:39;24.60;72.80
15700;DHT22;7950;42.744;23.174;2023-08-12T08:24:07;24.70;74.20
15700;DHT22;7950;42.744;23.174;2023-08-12T08:26:38;24.70;70.80
15700;DHT22;7950;42.744;23.174;2023-08-12T08:29:09;24.70;72.10
15700;DHT22;7950;42.744;23.174;2023-08-12T08:31:37;24.70;73.90
15700;DHT22;7950;42.744;23.174;2023-08-12T08:34:06;24.80;71.60
15700;DHT22;7950;42.744;23.174;2023-08-12T08:36:34;25.00;70.30
15700;DHT22;7950;42.744;23.174;2023-08-12T08:39:03;25.10;70.60
15700;DHT22;7950;42.744;23.174;2023-08-12T08:41:33;25.10;69.00
15700;DHT22;7950;42.744;23.174;2023-08-12T08:44:07;25.10;69.80
15700;DHT22;7950;42.744;23.174;2023-08-12T08:46:37;25.20;68.00
15700;DHT22;7950;42.744;23.174;2023-08-12T08:49:06;25.20;68.20
15700;DHT22;7950;42.744;23.174;2023-08-12T08:51:35;25.30;67.80
15700;DHT22;7950;42.744;23.174;2023-08-12T08:54:04;25.50;65.00
15700;DHT22;7950;42.744;23.174;2023-08-12T08:56:33;25.50;67.60
15700;DHT22;7950;42.744;23.174;2023-08-12T08:59:13;25.60;65.70
15700;DHT22;7950;42.744;23.174;2023-08-12T09:01:44;25.60;66.40
15700;DHT22;7950;42.744;23.174;2023-08-12T09:04:15;25.80;66.30
15700;DHT22;7950;42.744;23.174;2023-08-12T09:06:45;25.80;63.00
15700;DHT22;7950;42.744;23.174;2023-08-12T09:09:16;25.70;65.90
15700;DHT22;7950;42.744;23.174;2023-08-12T09:11:44;25.60;64.20
15700;DHT22;7950;42.744;23.174;2023-08-12T09:14:13;25.60;64.50
15700;DHT22;7950;42.744;23.174;2023-08-12T09:16:42;25.70;64.90
15700;DHT22;7950;42.744;23.174;2023-08-12T09:19:12;25.60;63.50
15700;DHT22;7950;42.744;23.174;2023-08-12T09:21:42;25.60;65.60
15700;DHT22;7950;42.744;23.174;2023-08-12T09:24:10;25.80;66.40
15700;DHT22;7950;42.744;23.174;2023-08-12T09:26:38;26.00;64.50
15700;DHT22;7950;42.744;23.174;2023-08-12T09:29:10;26.10;63.20
15700;DHT22;7950;42.744;23.174;2023-08-12T09:31:38;26.30;63.40
15700;DHT22;7950;42.744;23.174;2023-08-12T09:34:08;26.40;62.40
15700;DHT22;7950;42.744;23.174;2023-08-12T09:36:37;26.40;60.90
15700;DHT22;7950;42.744;23.174;2023-08-12T09:39:06;26.30;60.80
15700;DHT22;7950;42.744;23.174;2023-08-12T09:41:37;26.20;61.60
15700;DHT22;7950;42.744;23.174;2023-08-12T09:44:06;26.40;62.90
15700;DHT22;7950;42.744;23.174;2023-08-12T09:46:34;26.40;58.80
15700;DHT22;7950;42.744;23.174;2023-08-12T09:49:03;26.40;59.80
15700;DHT22;7950;42.744;23.174;2023-08-12T09:51:35;26.50;59.30
15700;DHT22;7950;42.744;23.174;2023-08-12T09:54:04;26.50;59.10
15700;DHT22;7950;42.744;23.174;2023-08-12T09:56:36;26.40;60.50
15700;DHT22;7950;42.744;23.174;2023-08-12T09:59:06;26.50;60.30
15700;DHT22;7950;42.744;23.174;2023-08-12T10:01:35;26.60;60.80
15700;DHT22;7950;42.744;23.174;2023-08-12T10:04:06;26.70;60.80
15700;DHT22;7950;42.744;23.174;2023-08-12T10:06:41;26.90;58.30
15700;DHT22;7950;42.744;23.174;2023-08-12T10:09:10;26.90;58.90
15700;DHT22;7950;42.744;23.174;2023-08-12T10:11:39;26.80;57.50
15700;DHT22;7950;42.744;23.174;2023-08-12T10:14:09;26.80;58.80
15700;DHT22;7950;42.744;23.174;2023-08-12T10:16:38;26.80;58.50
15700;DHT22;7950;42.744;23.174;2023-08-12T10:19:11;26.90;58.30
15700;DHT22;7950;42.744;23.174;2023-08-12T10:21:41;26.80;56.60
15700;DHT22;7950;42.744;23.174;2023-08-12T10:24:10;26.90;57.30
15700;DHT22;7950;42.744;23.174;2023-08-12T10:26:40;27.00;57.60
15700;DHT22;7950;42.744;23.174;2023-08-12T10:29:09;27.10;56.90
15700;DHT22;7950;42.744;23.174;2023-08-12T10:31:38;27.30;56.40
15700;DHT22;7950;42.744;23.174;2023-08-12T10:34:07;27.50;56.70
15700;DHT22;7950;42.744;23.174;2023-08-12T10:36:47;27.60;56.10
15700;DHT22;7950;42.744;23.174;2023-08-12T10:39:28;27.70;55.10
15700;DHT22;7950;42.744;23.174;2023-08-12T10:41:57;27.80;55.40
15700;DHT22;7950;42.744;23.174;2023-08-12T10:44:27;27.80;53.60
15700;DHT22;7950;42.744;23.174;2023-08-12T10:46:58;27.70;53.20
15700;DHT22;7950;42.744;23.174;2023-08-12T10:49:26;27.60;53.00
15700;DHT22;7950;42.744;23.174;2023-08-12T10:51:56;27.50;52.90
15700;DHT22;7950;42.744;23.174;2023-08-12T10:54:25;27.40;54.10
15700;DHT22;7950;42.744;23.174;2023-08-12T10:57:09;27.40;54.00
15700;DHT22;7950;42.744;23.174;2023-08-12T10:59:54;27.50;52.40
15700;DHT22;7950;42.744;23.174;2023-08-12T11:02:28;27.60;52.90
15700;DHT22;7950;42.744;23.174;2023-08-12T11:05:00;27.70;52.40
15700;DHT22;7950;42.744;23.174;2023-08-12T11:07:33;27.80;52.60
15700;DHT22;7950;42.744;23.174;2023-08-12T11:10:10;28.10;51.70
15700;DHT22;7950;42.744;23.174;2023-08-12T11:12:39;28.30;51.80
15700;DHT22;7950;42.744;23.174;2023-08-12T11:15:10;28.50;49.50
15700;DHT22;7950;42.744;23.174;2023-08-12T11:17:39;28.60;49.80
15700;DHT22;7950;42.744;23.174;2023-08-12T11:20:09;28.80;50.40
15700;DHT22;7950;42.744;23.174;2023-08-12T11:22:40;28.90;49.90
15700;DHT22;7950;42.744;23.174;2023-08-12T11:25:10;28.80;50.70
15700;DHT22;7950;42.744;23.174;2023-08-12T11:27:40;28.80;49.70
15700;DHT22;7950;42.744;23.174;2023-08-12T11:30:10;28.70;50.50
15700;DHT22;7950;42.744;23.174;2023-08-12T11:32:39;28.40;50.10
15700;DHT22;7950;42.744;23.174;2023-08-12T11:35:09;28.20;50.90
15700;DHT22;7950;42.744;23.174;2023-08-12T11:37:40;28.30;53.00
15700;DHT22;7950;42.744;23.174;2023-08-12T11:40:10;28.50;52.70
15700;DHT22;7950;42.744;23.174;2023-08-12T11:42:39;28.70;53.80
15700;DHT22;7950;42.744;23.174;2023-08-12T11:45:09;28.80;52.60
15700;DHT22;7950;42.744;23.174;2023-08-12T11:47:39;28.70;53.60
15700;DHT22;7950;42.744;23.174;2023-08-12T11:50:09;28.70;54.00
15700;DHT22;7950;42.744;23.174;2023-08-12T11:52:40;28.90;54.60
15700;DHT22;7950;42.744;23.174;2023-08-12T11:55:09;29.30;54.80
15700;DHT22;7950;42.744;23.174;2023-08-12T11:57:39;29.50;53.30
15700;DHT22;7950;42.744;23.174;2023-08-12T12:00:10;29.70;53.30
15700;DHT22;7950;42.744;23.174;2023-08-12T12:02:47;29.70;52.00
15700;DHT22;7950;42.744;23.174;2023-08-12T12:05:17;29.70;52.40
15700;DHT22;7950;42.744;23.174;2023-08-12T12:07:51;29.40;52.60
15700;DHT22;7950;42.744;23.174;2023-08-12T12:10:21;29.00;53.30
15700;DHT22;7950;42.744;23.174;2023-08-12T12:13:00;28.70;54.30
15700;DHT22;7950;42.744;23.174;2023-08-12T12:15:29;28.50;54.90
15700;DHT22;7950;42.744;23.174;2023-08-12T12:17:58;28.30;55.80
15700;DHT22;7950;42.744;23.174;2023-08-12T12:20:26;28.20;55.30
15700;DHT22;7950;42.744;23.174;2023-08-12T12:23:05;28.00;54.40
15700;DHT22;7950;42.744;23.174;2023-08-12T12:25:34;27.80;54.20
15700;DHT22;7950;42.744;23.174;2023-08-12T12:28:02;27.70;54.30
15700;DHT22;7950;42.744;23.174;2023-08-12T12:30:31;27.70;55.40
15700;DHT22;7950;42.744;23.174;2023-08-12T12:43:57;27.80;54.30
15700;DHT22;7950;42.744;23.174;2023-08-12T12:46:25;28.60;54.20
15700;DHT22;7950;42.744;23.174;2023-08-12T12:48:54;28.30;54.20
15700;DHT22;7950;42.744;23.174;2023-08-12T12:51:22;28.00;54.90
15700;DHT22;7950;42.744;23.174;2023-08-12T12:53:51;27.70;54.90
15700;DHT22;7950;42.744;23.174;2023-08-12T12:56:19;27.40;55.60
15700;DHT22;7950;42.744;23.174;2023-08-12T12:58:48;27.30;56.40
15700;DHT22;7950;42.744;23.174;2023-08-12T13:14:49;27.10;55.90
15700;DHT22;7950;42.744;23.174;2023-08-12T13:17:18;27.90;54.70
15700;DHT22;7950;42.744;23.174;2023-08-12T13:19:46;28.10;54.70
15700;DHT22;7950;42.744;23.174;2023-08-12T13:22:15;28.30;55.20
15700;DHT22;7950;42.744;23.174;2023-08-12T13:24:43;28.50;54.10
15700;DHT22;7950;42.744;23.174;2023-08-12T13:27:13;28.70;51.30
15700;DHT22;7950;42.744;23.174;2023-08-12T13:29:42;28.70;51.70
15700;DHT22;7950;42.744;23.174;2023-08-12T13:32:11;28.80;52.30
15700;DHT22;7950;42.744;23.174;2023-08-12T13:34:41;28.90;51.70
15700;DHT22;7950;42.744;23.174;2023-08-12T13:37:13;29.00;51.40
15700;DHT22;7950;42.744;23.174;2023-08-12T13:39:42;29.10;52.10
15700;DHT22;7950;42.744;23.174;2023-08-12T13:42:10;29.10;50.90
15700;DHT22;7950;42.744;23.174;2023-08-12T13:44:39;29.20;51.70
15700;DHT22;7950;42.744;23.174;2023-08-12T13:47:08;29.30;50.90
15700;DHT22;7950;42.744;23.174;2023-08-12T13:49:38;29.30;50.60
15700;DHT22;7950;42.744;23.174;2023-08-12T13:52:06;29.40;50.70
15700;DHT22;7950;42.744;23.174;2023-08-12T13:54:35;29.40;50.50
15700;DHT22;7950;42.744;23.174;2023-08-12T13:57:03;29.50;50.70
15700;DHT22;7950;42.744;23.174;2023-08-12T13:59:32;29.50;50.70
15700;DHT22;7950;42.744;23.174;2023-08-12T14:02:01;29.60;49.70
15700;DHT22;7950;42.744;23.174;2023-08-12T14:04:30;29.60;50.20
15700;DHT22;7950;42.744;23.174;2023-08-12T14:06:59;29.50;49.10
15700;DHT22;7950;42.744;23.174;2023-08-12T14:09:28;29.50;50.60
15700;DHT22;7950;42.744;23.174;2023-08-12T14:11:57;29.40;49.50
15700;DHT22;7950;42.744;23.174;2023-08-12T14:14:26;29.30;48.60
15700;DHT22;7950;42.744;23.174;2023-08-12T14:16:55;29.20;49.10
15700;DHT22;7950;42.744;23.174;2023-08-12T14:19:23;29.00;48.10
15700;DHT22;7950;42.744;23.174;2023-08-12T14:21:52;29.00;49.50
15700;DHT22;7950;42.744;23.174;2023-08-12T14:24:22;29.00;49.50
15700;DHT22;7950;42.744;23.174;2023-08-12T14:26:51;28.90;48.60
15700;DHT22;7950;42.744;23.174;2023-08-12T14:29:19;28.60;49.00
15700;DHT22;7950;42.744;23.174;2023-08-12T14:31:48;28.40;49.90
15700;DHT22;7950;42.744;23.174;2023-08-12T14:34:16;28.20;50.30
15700;DHT22;7950;42.744;23.174;2023-08-12T14:36:45;28.00;50.20
15700;DHT22;7950;42.744;23.174;2023-08-12T14:39:13;27.70;50.00
15700;DHT22;7950;42.744;23.174;2023-08-12T14:41:43;27.50;51.10
15700;DHT22;7950;42.744;23.174;2023-08-12T14:44:12;27.40;51.60
15700;DHT22;7950;42.744;23.174;2023-08-12T14:46:42;27.20;51.70
15700;DHT22;7950;42.744;23.174;2023-08-12T14:49:11;27.10;51.60
15700;DHT22;7950;42.744;23.174;2023-08-12T14:51:40;27.00;51.80
15700;DHT22;7950;42.744;23.174;2023-08-12T14:54:08;26.90;51.40
15700;DHT22;7950;42.744;23.174;2023-08-12T14:56:37;26.80;51.90
15700;DHT22;7950;42.744;23.174;2023-08-12T14:59:07;26.70;52.20
15700;DHT22;7950;42.744;23.174;2023-08-12T15:01:35;26.70;52.30
15700;DHT22;7950;42.744;23.174;2023-08-12T15:04:04;26.60;53.60
15700;DHT22;7950;42.744;23.174;2023-08-12T15:06:33;26.60;54.10
15700;DHT22;7950;42.744;23.174;2023-08-12T15:09:02;26.60;54.50
15700;DHT22;7950;42.744;23.174;2023-08-12T15:11:31;26.50;54.80
15700;DHT22;7950;42.744;23.174;2023-08-12T15:14:00;26.40;54.50
15700;DHT22;7950;42.744;23.174;2023-08-12T15:16:30;26.40;55.40
15700;DHT22;7950;42.744;23.174;2023-08-12T15:18:59;26.30;55.60
15700;DHT22;7950;42.744;23.174;2023-08-12T15:21:28;26.30;55.10
15700;DHT22;7950;42.744;23.174;2023-08-12T15:23:57;26.20;56.10
15700;DHT22;7950;42.744;23.174;2023-08-12T15:26:25;26.10;56.50
15700;DHT22;7950;42.744;23.174;2023-08-12T15:28:56;26.10;56.30
15700;DHT22;7950;42.744;23.174;2023-08-12T15:31:25;26.10;56.20
15700;DHT22;7950;42.744;23.174;2023-08-12T15:33:55;26.00;56.00
15700;DHT22;7950;42.744;23.174;2023-08-12T15:36:24;25.90;56.60
15700;DHT22;7950;42.744;23.174;2023-08-12T15:38:53;25.90;56.60
15700;DHT22;7950;42.744;23.174;2023-08-12T15:41:21;25.80;57.40
15700;DHT22;7950;42.744;23.174;2023-08-12T15:43:50;25.70;57.60
15700;DHT22;7950;42.744;23.174;2023-08-12T15:46:18;25.70;57.60
15700;DHT22;7950;42.744;23.174;2023-08-12T15:48:47;25.70;57.20
15700;DHT22;7950;42.744;23.174;2023-08-12T15:51:17;25.70;57.60
15700;DHT22;7950;42.744;23.174;2023-08-12T15:53:45;25.70;56.90
15700;DHT22;7950;42.744;23.174;2023-08-12T15:56:14;25.70;57.40
15700;DHT22;7950;42.744;23.174;2023-08-12T15:58:42;25.60;57.30
15700;DHT22;7950;42.744;23.174;2023-08-12T16:01:10;25.60;57.50
15700;DHT22;7950;42.744;23.174;2023-08-12T16:03:39;25.60;57.70
15700;DHT22;7950;42.744;23.174;2023-08-12T16:06:08;25.50;58.10
15700;DHT22;7950;42.744;23.174;2023-08-12T16:08:38;25.50;58.50
15700;DHT22;7950;42.744;23.174;2023-08-12T16:11:06;25.50;58.60
15700;DHT22;7950;42.744;23.174;2023-08-12T16:13:35;25.40;58.70
15700;DHT22;7950;42.744;23.174;2023-08-12T16:16:03;25.40;58.90
15700;DHT22;7950;42.744;23.174;2023-08-12T16:18:33;25.30;59.10
15700;DHT22;7950;42.744;23.174;2023-08-12T16:21:02;25.30;59.40